Time;durP1;ratioP1;P1;durP2;ratioP2;P2;SDS_P1;SDS_P2;PMS_P1;PMS_P2;Temp;Humidity;BMP_temperature;BMP_pressure;BME280_temperature;BME280_humidity;BME280_pressure;Samples;Min_cycle;Max_cycle;Signal;HPM_P1;HPM_P2
2021/09/21 00:01:54;;;;;;;15.03;8.80;;;4.20;99.90;;;;;;4398105;28;657946;-69
2021/09/21 00:04:42;;;;;;;14.20;8.75;;;4.30;99.90;;;;;;4417069;28;656433;-69
2021/09/21 00:07:29;;;;;;;16.87;8.70;;;4.40;99.90;;;;;;4394020;28;657322;-69
2021/09/21 00:10:17;;;;;;;14.13;8.40;;;4.40;99.90;;;;;;4408436;28;656882;-69
2021/09/21 00:13:06;;;;;;;13.13;8.30;;;4.40;99.90;;;;;;4398452;28;657051;-69
2021/09/21 00:15:54;;;;;;;16.07;8.10;;;4.40;99.90;;;;;;4397464;28;656902;-69
2021/09/21 00:18:41;;;;;;;15.33;8.33;;;4.50;99.90;;;;;;4414987;28;656261;-69
2021/09/21 00:21:29;;;;;;;13.97;8.00;;;4.40;99.90;;;;;;4397696;28;656691;-69
2021/09/21 00:24:16;;;;;;;16.30;9.07;;;4.40;99.90;;;;;;4414312;28;656453;-69
2021/09/21 00:27:04;;;;;;;21.47;9.33;;;4.40;99.90;;;;;;4394002;28;657187;-69
2021/09/21 00:29:53;;;;;;;15.37;8.53;;;4.40;99.90;;;;;;4423160;28;656059;-69
2021/09/21 00:32:44;;;;;;;15.27;8.70;;;4.40;99.90;;;;;;4410824;28;657081;-69
2021/09/21 00:35:32;;;;;;;17.73;8.70;;;4.40;99.90;;;;;;4409521;28;656539;-69
2021/09/21 00:38:21;;;;;;;14.53;7.77;;;4.30;99.90;;;;;;4414009;28;656989;-69
2021/09/21 00:41:12;;;;;;;16.67;8.77;;;4.40;99.90;;;;;;4413465;28;657208;-69
2021/09/21 00:43:59;;;;;;;15.40;8.20;;;4.30;99.90;;;;;;4411736;28;656920;-70
2021/09/21 00:46:48;;;;;;;17.27;8.90;;;4.20;99.90;;;;;;4432558;28;656796;-69
2021/09/21 00:49:36;;;;;;;13.00;8.30;;;4.20;99.90;;;;;;4409703;28;656672;-70
2021/09/21 00:52:24;;;;;;;15.37;7.83;;;4.20;99.90;;;;;;4414923;28;656225;-70
2021/09/21 00:55:12;;;;;;;13.97;8.40;;;4.10;99.90;;;;;;4434438;28;657087;-70
2021/09/21 00:57:59;;;;;;;21.77;8.23;;;4.00;99.90;;;;;;4415323;28;657641;-69
2021/09/21 01:00:47;;;;;;;16.07;8.43;;;4.00;99.90;;;;;;4433799;28;656522;-69
2021/09/21 01:03:36;;;;;;;14.80;8.43;;;4.00;99.90;;;;;;4410673;28;657538;-71
2021/09/21 01:06:23;;;;;;;18.17;9.40;;;3.90;99.90;;;;;;4414804;28;656956;-71
2021/09/21 01:09:17;;;;;;;20.77;8.33;;;3.90;99.90;;;;;;4432768;28;656957;-71
2021/09/21 01:12:04;;;;;;;13.57;7.93;;;3.80;99.90;;;;;;4386815;28;657069;-72
2021/09/21 01:14:52;;;;;;;16.02;7.82;;;3.80;99.90;;;;;;4433126;28;656671;-72
2021/09/21 01:17:39;;;;;;;15.10;8.30;;;3.80;99.90;;;;;;4414840;28;657365;-72
2021/09/21 01:20:28;;;;;;;14.30;8.00;;;3.70;99.90;;;;;;4433173;28;656441;-71
2021/09/21 01:23:17;;;;;;;16.40;8.23;;;3.70;99.90;;;;;;4413815;28;657256;-72
2021/09/21 01:26:05;;;;;;;17.47;8.77;;;3.60;99.90;;;;;;4412817;28;657165;-72
2021/09/21 01:28:53;;;;;;;13.60;8.37;;;3.60;99.90;;;;;;4420392;28;657006;-71
2021/09/21 01:31:41;;;;;;;16.57;8.13;;;3.60;99.90;;;;;;4433236;28;657624;-71
2021/09/21 01:34:28;;;;;;;17.57;9.07;;;3.60;99.90;;;;;;4413663;28;656785;-71
2021/09/21 01:37:16;;;;;;;17.33;9.20;;;3.60;99.90;;;;;;4432948;28;657488;-71
2021/09/21 01:40:07;;;;;;;16.97;10.27;;;3.60;99.90;;;;;;4414230;28;656758;-71
2021/09/21 01:42:54;;;;;;;17.00;9.57;;;3.50;99.90;;;;;;4413018;28;657681;-72
2021/09/21 01:45:42;;;;;;;15.90;9.30;;;3.50;99.90;;;;;;4432790;28;656862;-71
2021/09/21 01:48:29;;;;;;;16.80;9.07;;;3.50;99.90;;;;;;4414185;28;656389;-72
2021/09/21 01:51:20;;;;;;;16.43;9.60;;;3.50;99.90;;;;;;4432173;28;656318;-71
2021/09/21 01:54:16;;;;;;;16.83;9.02;;;3.40;99.90;;;;;;4404607;28;656161;-71
2021/09/21 02:00:11;;;;;;;15.87;8.27;;;3.50;99.90;;;;;;4385983;28;656776;-72
2021/09/21 02:02:59;;;;;;;16.10;8.45;;;3.40;99.90;;;;;;4414167;28;657026;-72
2021/09/21 02:05:47;;;;;;;15.70;9.17;;;3.40;99.90;;;;;;4432474;28;656705;-71
2021/09/21 02:08:35;;;;;;;13.93;8.13;;;3.50;99.90;;;;;;4408829;28;657940;-71
2021/09/21 02:11:23;;;;;;;15.77;8.63;;;3.40;99.90;;;;;;4427676;28;656623;-72
2021/09/21 02:14:13;;;;;;;15.57;8.67;;;3.40;99.90;;;;;;4431212;28;657588;-72
2021/09/21 02:17:01;;;;;;;19.43;9.20;;;3.50;99.90;;;;;;4412013;28;658460;-72
2021/09/21 02:19:48;;;;;;;22.33;10.17;;;3.50;99.90;;;;;;4412276;28;656627;-72
2021/09/21 02:22:37;;;;;;;15.90;9.13;;;3.60;99.90;;;;;;4427075;28;657585;-71
2021/09/21 02:25:24;;;;;;;22.33;10.73;;;3.80;99.90;;;;;;4408430;28;658083;-71
2021/09/21 02:28:12;;;;;;;22.97;10.97;;;3.90;99.90;;;;;;4430331;28;657871;-71
2021/09/21 02:31:01;;;;;;;20.27;11.27;;;4.00;99.90;;;;;;4401040;28;658873;-72
2021/09/21 02:33:48;;;;;;;30.30;10.37;;;4.10;99.90;;;;;;4411701;28;657546;-72
2021/09/21 02:36:40;;;;;;;20.48;12.23;;;4.20;99.90;;;;;;4417337;28;658285;-72
2021/09/21 02:39:28;;;;;;;26.17;13.40;;;4.30;99.90;;;;;;4371772;28;657558;-71
2021/09/21 02:42:16;;;;;;;27.47;14.77;;;4.50;99.90;;;;;;4417122;28;658630;-71
2021/09/21 02:45:04;;;;;;;31.37;15.60;;;4.70;99.90;;;;;;4393496;28;657856;-72
2021/09/21 02:47:53;;;;;;;31.70;15.27;;;4.90;99.90;;;;;;4413010;28;657974;-72
2021/09/21 02:50:40;;;;;;;27.37;14.60;;;4.90;99.90;;;;;;4404771;28;658775;-71
2021/09/21 02:53:31;;;;;;;34.70;15.73;;;5.00;99.90;;;;;;4405571;28;658123;-72
2021/09/21 02:56:19;;;;;;;29.83;14.37;;;5.10;99.90;;;;;;4398073;28;657871;-72
2021/09/21 02:59:06;;;;;;;28.20;14.43;;;5.20;99.90;;;;;;4429704;28;657549;-72
2021/09/21 03:01:54;;;;;;;24.93;14.10;;;5.30;99.90;;;;;;4407004;28;657547;-71
2021/09/21 03:04:50;;;;;;;27.57;14.77;;;5.30;99.90;;;;;;4429964;28;657722;-72
2021/09/21 03:07:39;;;;;;;26.60;14.80;;;5.30;99.90;;;;;;4379915;28;657639;-72
2021/09/21 03:10:34;;;;;;;30.17;15.37;;;5.30;99.90;;;;;;4424347;28;658020;-72
2021/09/21 03:13:29;;;;;;;28.37;13.87;;;5.40;99.90;;;;;;4407311;28;658439;-72
2021/09/21 03:19:23;;;;;;;27.08;14.73;;;5.50;99.90;;;;;;4407101;28;657691;-72
2021/09/21 03:22:12;;;;;;;27.00;13.77;;;5.50;99.90;;;;;;4407454;28;657467;-72
2021/09/21 03:25:00;;;;;;;30.23;13.87;;;5.50;99.90;;;;;;4411255;28;658619;-72
2021/09/21 03:27:48;;;;;;;25.57;14.13;;;5.40;99.90;;;;;;4422465;28;657662;-70
2021/09/21 03:30:35;;;;;;;27.07;13.47;;;5.40;99.90;;;;;;4432671;28;658619;-69
2021/09/21 03:33:23;;;;;;;27.63;14.63;;;5.40;99.90;;;;;;4411353;28;657971;-70
2021/09/21 03:36:11;;;;;;;29.67;15.70;;;5.30;99.90;;;;;;4436899;28;658201;-70
2021/09/21 03:38:59;;;;;;;28.07;15.37;;;5.20;99.90;;;;;;4414819;28;657490;-70
2021/09/21 03:41:47;;;;;;;31.77;15.30;;;5.20;99.90;;;;;;4433101;28;657447;-70
2021/09/21 03:44:35;;;;;;;28.80;14.83;;;5.00;99.90;;;;;;4399946;28;658482;-70
2021/09/21 03:47:22;;;;;;;28.63;15.37;;;5.10;99.90;;;;;;4430311;28;657890;-70
2021/09/21 03:50:11;;;;;;;33.00;17.10;;;5.00;99.90;;;;;;4410291;28;658455;-70
2021/09/21 03:52:58;;;;;;;33.20;15.50;;;5.00;99.90;;;;;;4414072;28;658011;-70
2021/09/21 03:55:47;;;;;;;33.87;17.10;;;5.10;99.90;;;;;;4432776;28;658747;-70
2021/09/21 03:58:35;;;;;;;30.40;17.23;;;5.10;99.90;;;;;;4413854;28;658296;-70
2021/09/21 04:01:23;;;;;;;35.07;17.53;;;5.10;99.90;;;;;;4433119;28;658460;-70
2021/09/21 04:04:10;;;;;;;31.87;16.83;;;5.10;99.90;;;;;;4433358;28;659415;-70
2021/09/21 04:06:58;;;;;;;33.23;17.67;;;5.20;99.90;;;;;;4414319;28;657840;-70
2021/09/21 04:09:45;;;;;;;34.60;18.67;;;5.20;99.90;;;;;;4437526;28;658060;-70
2021/09/21 04:12:35;;;;;;;40.67;19.40;;;5.20;99.90;;;;;;4413897;28;657757;-70
2021/09/21 04:15:23;;;;;;;39.53;19.40;;;5.30;99.90;;;;;;4421933;28;658094;-70
2021/09/21 04:18:10;;;;;;;41.17;19.10;;;5.30;99.90;;;;;;4432870;28;659588;-70
2021/09/21 04:20:58;;;;;;;34.15;15.80;;;5.30;99.90;;;;;;4413916;28;657470;-70
2021/09/21 04:23:51;;;;;;;28.43;15.17;;;5.20;99.90;;;;;;4436386;28;657913;-69
2021/09/21 04:26:39;;;;;;;31.27;16.17;;;5.20;99.90;;;;;;4386708;28;658816;-69
2021/09/21 04:29:28;;;;;;;41.37;16.67;;;5.10;99.90;;;;;;4432359;28;657513;-69
2021/09/21 04:32:16;;;;;;;33.23;15.60;;;5.10;99.90;;;;;;4410028;28;657833;-69
2021/09/21 04:35:03;;;;;;;33.47;16.20;;;5.00;99.90;;;;;;4413628;28;657582;-69
2021/09/21 04:37:51;;;;;;;30.60;15.80;;;5.00;99.90;;;;;;4432224;28;659105;-69
2021/09/21 04:40:38;;;;;;;27.20;15.67;;;5.00;99.90;;;;;;4413634;28;657701;-69
2021/09/21 04:43:26;;;;;;;34.67;15.73;;;5.00;99.90;;;;;;4430523;28;659106;-69
2021/09/21 04:46:15;;;;;;;31.23;15.90;;;4.90;99.90;;;;;;4400517;28;657612;-69
2021/09/21 04:49:04;;;;;;;36.23;17.67;;;4.90;99.90;;;;;;4417394;28;657138;-69
2021/09/21 04:51:52;;;;;;;28.73;15.33;;;5.00;99.90;;;;;;4432029;28;657403;-69
2021/09/21 04:54:39;;;;;;;41.60;18.17;;;5.10;99.90;;;;;;4413476;28;658672;-69
2021/09/21 04:57:27;;;;;;;40.27;16.23;;;5.10;99.90;;;;;;4436468;28;657240;-69
2021/09/21 05:00:16;;;;;;;33.10;16.83;;;5.20;99.90;;;;;;4413540;28;658360;-69
2021/09/21 05:03:05;;;;;;;44.23;17.67;;;5.10;99.90;;;;;;4413430;28;657825;-69
2021/09/21 05:05:52;;;;;;;34.53;18.50;;;5.10;99.90;;;;;;4427382;28;657513;-69
2021/09/21 05:08:40;;;;;;;40.73;19.50;;;5.10;99.90;;;;;;4409335;28;658336;-69
2021/09/21 05:11:28;;;;;;;36.83;19.07;;;5.20;99.90;;;;;;4416937;28;657593;-69
2021/09/21 05:14:15;;;;;;;38.20;18.80;;;5.30;99.90;;;;;;4436416;28;659081;-69
2021/09/21 05:17:03;;;;;;;37.33;21.00;;;5.30;99.90;;;;;;4412935;28;657855;-69
2021/09/21 05:19:52;;;;;;;35.63;19.87;;;5.30;99.90;;;;;;4432093;28;658788;-69
2021/09/21 05:22:40;;;;;;;41.30;20.20;;;5.40;99.90;;;;;;4413136;28;658535;-69
2021/09/21 05:25:28;;;;;;;34.63;19.77;;;5.50;99.90;;;;;;4428792;28;657650;-69
2021/09/21 05:28:15;;;;;;;43.23;22.43;;;5.60;99.90;;;;;;4415236;28;658988;-67
2021/09/21 05:31:03;;;;;;;41.87;22.40;;;5.70;99.90;;;;;;4410297;28;657546;-67
2021/09/21 05:33:50;;;;;;;41.80;22.50;;;5.70;99.90;;;;;;4431024;28;658460;-67
2021/09/21 05:36:39;;;;;;;40.70;21.17;;;5.70;99.90;;;;;;4412229;28;657849;-67
2021/09/21 05:39:27;;;;;;;40.63;20.80;;;5.80;99.90;;;;;;4431081;28;657838;-67
2021/09/21 05:42:14;;;;;;;36.67;21.07;;;5.90;99.90;;;;;;4407771;28;658454;-68
2021/09/21 05:45:03;;;;;;;39.60;21.67;;;6.00;99.90;;;;;;4431037;28;657695;-68
2021/09/21 05:47:51;;;;;;;36.47;19.43;;;6.10;99.90;;;;;;4408584;28;658261;-68
2021/09/21 05:50:38;;;;;;;39.77;20.43;;;6.20;99.90;;;;;;4405741;28;657368;-67
2021/09/21 05:53:27;;;;;;;38.93;20.23;;;6.30;99.90;;;;;;4430087;28;658341;-67
2021/09/21 05:56:15;;;;;;;46.43;20.93;;;6.50;99.90;;;;;;4398307;28;657707;-68
2021/09/21 05:59:03;;;;;;;39.40;20.17;;;6.60;99.90;;;;;;4402026;28;657256;-68
2021/09/21 06:01:50;;;;;;;36.97;19.73;;;6.70;99.90;;;;;;4433756;28;657784;-68
2021/09/21 06:04:38;;;;;;;38.73;20.17;;;6.90;99.90;;;;;;4410224;28;657767;-68
2021/09/21 06:07:26;;;;;;;37.87;20.27;;;7.00;99.90;;;;;;4426119;28;658746;-68
2021/09/21 06:10:15;;;;;;;36.20;19.33;;;7.10;99.90;;;;;;4407636;28;658314;-68
2021/09/21 06:13:02;;;;;;;34.07;18.80;;;7.10;99.90;;;;;;4413047;28;658019;-68
2021/09/21 06:15:50;;;;;;;35.57;19.63;;;7.20;99.90;;;;;;4394898;28;658294;-68
2021/09/21 06:18:38;;;;;;;35.73;20.90;;;7.30;99.90;;;;;;4402807;28;657600;-67
2021/09/21 06:21:26;;;;;;;41.97;24.00;;;7.40;99.90;;;;;;4416854;28;658073;-67
2021/09/21 06:24:13;;;;;;;44.13;26.43;;;7.50;99.90;;;;;;4388697;28;657519;-67
2021/09/21 06:27:02;;;;;;;50.67;30.20;;;7.60;99.90;;;;;;4411147;28;658805;-68
2021/09/21 06:29:50;;;;;;;48.35;29.70;;;7.60;99.90;;;;;;4393218;28;657484;-67
2021/09/21 06:32:38;;;;;;;44.43;27.63;;;7.80;99.90;;;;;;4402359;28;657679;-68
2021/09/21 06:35:25;;;;;;;49.30;27.00;;;8.10;99.90;;;;;;4412321;28;658617;-68
2021/09/21 06:38:13;;;;;;;38.17;22.77;;;8.30;99.90;;;;;;4388731;28;658095;-67
2021/09/21 06:41:01;;;;;;;37.73;22.10;;;8.20;99.90;;;;;;4411774;28;658638;-68
2021/09/21 06:43:50;;;;;;;35.50;19.23;;;8.30;99.90;;;;;;4387573;28;657795;-68
2021/09/21 06:46:38;;;;;;;32.40;17.23;;;8.30;99.90;;;;;;4395358;28;657351;-68
2021/09/21 06:49:25;;;;;;;28.70;16.73;;;8.30;99.90;;;;;;4408800;28;658625;-67
2021/09/21 06:52:13;;;;;;;27.90;16.40;;;8.30;99.90;;;;;;4388234;28;657587;-67
2021/09/21 06:55:01;;;;;;;31.83;16.27;;;8.40;99.90;;;;;;4414909;28;658704;-68
2021/09/21 06:57:52;;;;;;;27.43;15.10;;;8.50;99.90;;;;;;4392779;28;658003;-68
2021/09/21 07:00:43;;;;;;;33.13;17.30;;;8.50;99.90;;;;;;4384823;28;658512;-67
2021/09/21 07:03:31;;;;;;;29.10;16.50;;;8.50;99.90;;;;;;4380281;28;658284;-67
2021/09/21 07:06:18;;;;;;;31.53;16.27;;;8.60;99.90;;;;;;4388546;28;657806;-68
2021/09/21 07:09:06;;;;;;;27.05;16.90;;;8.70;99.90;;;;;;4412263;28;658116;-67
2021/09/21 07:11:53;;;;;;;31.13;17.53;;;8.80;99.90;;;;;;4387456;28;657623;-67
2021/09/21 07:14:41;;;;;;;31.73;18.73;;;9.00;99.90;;;;;;4420833;28;658865;-67
2021/09/21 07:17:30;;;;;;;28.10;15.90;;;9.30;99.90;;;;;;4402250;28;657673;-67
2021/09/21 07:20:18;;;;;;;34.27;18.90;;;9.10;99.90;;;;;;4403373;28;658158;-68
2021/09/21 07:23:05;;;;;;;36.70;19.40;;;9.10;99.90;;;;;;4423124;28;658078;-68
2021/09/21 07:25:53;;;;;;;31.27;19.33;;;9.20;99.90;;;;;;4406190;28;657912;-68
2021/09/21 07:28:40;;;;;;;37.00;19.43;;;9.20;99.90;;;;;;4420220;28;657874;-67
2021/09/21 07:31:29;;;;;;;39.90;22.63;;;9.20;99.90;;;;;;4407589;28;657556;-67
2021/09/21 07:34:18;;;;;;;41.60;24.87;;;9.40;99.90;;;;;;4415830;28;657680;-67
2021/09/21 07:37:05;;;;;;;31.77;19.40;;;9.70;99.90;;;;;;4393610;28;658738;-67
2021/09/21 07:39:53;;;;;;;38.00;23.13;;;9.80;99.90;;;;;;4392711;28;657844;-67
2021/09/21 07:42:41;;;;;;;36.50;21.60;;;10.00;99.90;;;;;;4416221;28;658473;-68
2021/09/21 07:45:29;;;;;;;38.42;21.52;;;10.30;99.90;;;;;;4392629;28;658830;-67
2021/09/21 07:48:20;;;;;;;31.13;19.73;;;10.40;99.90;;;;;;4428413;28;659452;-68
2021/09/21 07:51:09;;;;;;;37.87;19.57;;;10.50;99.90;;;;;;4399949;28;658722;-67
2021/09/21 07:53:57;;;;;;;31.52;18.48;;;10.30;99.90;;;;;;4427172;28;658433;-67
2021/09/21 07:56:45;;;;;;;31.73;19.10;;;10.40;99.90;;;;;;4408818;28;659260;-67
2021/09/21 07:59:33;;;;;;;32.40;20.20;;;10.60;99.90;;;;;;4417995;28;658434;-67
2021/09/21 08:02:21;;;;;;;32.50;20.43;;;10.70;99.90;;;;;;4420254;28;658667;-67
2021/09/21 08:05:10;;;;;;;39.87;19.53;;;10.70;99.90;;;;;;4395049;28;659168;-68
2021/09/21 08:07:59;;;;;;;30.93;18.40;;;10.90;99.90;;;;;;4408312;28;658829;-67
2021/09/21 08:10:47;;;;;;;28.50;17.10;;;11.00;99.90;;;;;;4414520;28;658872;-67
2021/09/21 08:13:34;;;;;;;33.13;18.97;;;11.30;99.90;;;;;;4388244;28;659156;-68
2021/09/21 08:16:22;;;;;;;31.75;18.30;;;11.30;93.80;;;;;;4405712;28;658607;-68
2021/09/21 08:19:10;;;;;;;26.43;14.57;;;11.60;99.90;;;;;;4381854;28;659505;-67
2021/09/21 08:21:58;;;;;;;29.13;16.03;;;11.50;55.60;;;;;;4411221;28;658549;-68
2021/09/21 08:24:47;;;;;;;28.17;15.77;;;11.40;82.50;;;;;;4411488;28;659568;-67
2021/09/21 08:27:37;;;;;;;21.47;12.80;;;11.60;75.80;;;;;;4382333;28;660037;-67
2021/09/21 08:30:25;;;;;;;26.00;13.90;;;11.70;57.60;;;;;;4390900;28;659619;-68
2021/09/21 08:33:13;;;;;;;22.93;13.17;;;11.80;45.20;;;;;;4395574;28;658242;-67
2021/09/21 08:36:01;;;;;;;25.97;13.33;;;11.80;34.30;;;;;;4416554;28;659562;-67
2021/09/21 08:38:50;;;;;;;29.00;14.37;;;12.00;40.10;;;;;;4389665;28;658508;-67
2021/09/21 08:41:39;;;;;;;26.80;13.50;;;12.00;51.40;;;;;;4402225;28;659080;-68
2021/09/21 08:44:27;;;;;;;31.70;14.90;;;12.40;27.50;;;;;;4408241;28;658994;-68
2021/09/21 08:47:14;;;;;;;21.97;12.90;;;12.40;1.00;;;;;;4381727;28;660019;-68
2021/09/21 08:50:04;;;;;;;23.70;12.50;;;12.50;1.00;;;;;;4407768;28;658325;-67
2021/09/21 08:52:51;;;;;;;23.27;12.57;;;12.50;1.00;;;;;;4385830;28;658277;-68
2021/09/21 08:55:39;;;;;;;20.40;12.13;;;12.40;1.00;;;;;;4392628;28;657844;-67
2021/09/21 08:58:28;;;;;;;24.13;12.23;;;12.00;1.00;;;;;;4412987;28;657287;-67
2021/09/21 09:01:16;;;;;;;21.07;11.87;;;12.10;1.00;;;;;;4382810;28;657971;-67
2021/09/21 09:04:03;;;;;;;19.10;10.40;;;12.30;1.00;;;;;;4390852;28;657339;-67
2021/09/21 09:06:53;;;;;;;15.93;9.07;;;12.50;1.00;;;;;;4407805;28;658998;-68
2021/09/21 09:09:41;;;;;;;17.07;9.07;;;12.40;1.00;;;;;;4387344;28;657816;-68
2021/09/21 09:12:30;;;;;;;18.13;8.57;;;12.40;99.90;;;;;;4391731;28;656407;-67
2021/09/21 09:15:20;;;;;;;16.37;7.97;;;12.70;99.90;;;;;;4413134;28;657787;-68
2021/09/21 09:18:08;;;;;;;16.47;8.50;;;12.70;99.90;;;;;;4389652;28;657493;-68
2021/09/21 09:20:58;;;;;;;11.67;7.23;;;12.60;99.90;;;;;;4413204;28;658153;-68
2021/09/21 09:23:49;;;;;;;7.77;4.70;;;12.50;99.90;;;;;;4393476;28;658772;-68
2021/09/21 09:26:38;;;;;;;8.30;4.90;;;12.50;99.90;;;;;;4391932;28;656279;-67
2021/09/21 09:29:25;;;;;;;7.90;4.80;;;12.60;99.90;;;;;;4388699;28;656499;-68
2021/09/21 09:32:14;;;;;;;9.13;5.37;;;12.90;99.90;;;;;;4390397;28;656512;-67
2021/09/21 09:35:02;;;;;;;7.67;4.83;;;13.70;99.90;;;;;;4412748;28;656395;-69
2021/09/21 09:37:50;;;;;;;7.80;4.73;;;14.40;99.90;;;;;;4392070;28;657065;-68
2021/09/21 09:40:40;;;;;;;8.90;4.70;;;14.30;99.90;;;;;;4402750;28;656991;-68
2021/09/21 09:43:28;;;;;;;11.90;4.13;;;14.00;99.90;;;;;;4395949;28;656640;-68
2021/09/21 09:46:18;;;;;;;7.60;4.63;;;13.90;1.00;;;;;;4408316;28;658591;-68
2021/09/21 09:49:08;;;;;;;5.70;3.75;;;13.80;1.00;;;;;;4393047;28;656834;-68
2021/09/21 09:51:56;;;;;;;6.70;3.77;;;13.70;1.00;;;;;;4396711;28;656909;-68
2021/09/21 09:54:45;;;;;;;8.10;3.73;;;13.90;9.40;;;;;;4396877;28;655857;-67
2021/09/21 09:57:33;;;;;;;9.07;3.43;;;14.60;11.50;;;;;;4407669;28;655847;-68
2021/09/21 10:00:20;;;;;;;13.03;4.03;;;15.20;94.00;;;;;;4409999;28;657823;-68
2021/09/21 10:03:08;;;;;;;6.35;3.45;;;14.90;76.60;;;;;;4392363;28;658020;-68
2021/09/21 10:05:57;;;;;;;7.93;3.73;;;14.30;94.90;;;;;;4413085;28;657634;-67
2021/09/21 10:08:46;;;;;;;3.70;2.60;;;14.70;99.90;;;;;;4391761;28;657810;-67
2021/09/21 10:11:33;;;;;;;5.57;3.17;;;15.10;99.90;;;;;;4392421;28;656814;-68
2021/09/21 10:14:21;;;;;;;5.93;3.33;;;15.00;99.90;;;;;;4431036;28;657883;-67
2021/09/21 10:17:09;;;;;;;5.53;3.10;;;14.40;99.90;;;;;;4404247;28;656659;-68
2021/09/21 10:19:57;;;;;;;6.40;2.70;;;14.40;99.90;;;;;;4425956;28;656716;-68
2021/09/21 10:22:51;;;;;;;4.87;2.80;;;14.40;99.90;;;;;;4407901;28;656458;-68
2021/09/21 10:25:39;;;;;;;5.57;2.90;;;14.30;99.90;;;;;;4377547;28;658264;-68
2021/09/21 10:28:27;;;;;;;4.87;3.17;;;14.10;99.90;;;;;;4426232;28;655984;-68
2021/09/21 10:31:15;;;;;;;6.07;3.33;;;13.90;99.90;;;;;;4400895;28;658157;-68
2021/09/21 10:34:11;;;;;;;8.50;3.20;;;13.70;99.90;;;;;;4407406;28;656623;-67
2021/09/21 10:37:01;;;;;;;6.97;3.03;;;13.60;99.90;;;;;;4384184;28;656157;-67
2021/09/21 10:39:59;;;;;;;5.57;3.00;;;13.50;99.90;;;;;;4406423;28;656637;-67
2021/09/21 10:42:50;;;;;;;5.07;2.60;;;13.40;99.90;;;;;;4406547;28;657112;-67
2021/09/21 10:45:38;;;;;;;5.27;2.80;;;13.40;99.90;;;;;;4381551;28;656159;-68
2021/09/21 10:48:26;;;;;;;8.80;2.73;;;13.60;99.90;;;;;;4423781;28;657304;-67
2021/09/21 10:51:14;;;;;;;6.80;3.00;;;14.00;99.90;;;;;;4404332;28;656867;-68
2021/09/21 10:54:03;;;;;;;3.67;2.70;;;14.30;99.90;;;;;;4425677;28;656842;-67
2021/09/21 10:56:52;;;;;;;6.13;2.73;;;14.30;99.90;;;;;;4404658;28;657600;-68
2021/09/21 10:59:41;;;;;;;5.53;2.50;;;14.60;99.90;;;;;;4407458;28;658167;-67
2021/09/21 11:02:30;;;;;;;6.67;2.70;;;14.70;99.90;;;;;;4405203;28;656311;-68
2021/09/21 11:05:19;;;;;;;8.10;3.00;;;14.60;99.90;;;;;;4409171;28;656786;-68
2021/09/21 11:08:08;;;;;;;7.57;2.87;;;14.60;99.90;;;;;;4431736;28;657473;-67
2021/09/21 11:10:59;;;;;;;8.63;2.80;;;14.60;99.90;;;;;;4402436;28;657115;-67
2021/09/21 11:13:48;;;;;;;3.97;2.60;;;14.40;99.90;;;;;;4392476;28;656376;-68
2021/09/21 11:16:36;;;;;;;8.90;2.60;;;14.40;99.90;;;;;;4384339;28;657618;-68
2021/09/21 11:19:29;;;;;;;4.13;2.70;;;14.10;99.90;;;;;;4383517;28;656762;-68
2021/09/21 11:22:21;;;;;;;4.83;3.10;;;13.90;99.90;;;;;;4384331;28;656892;-67
2021/09/21 11:25:10;;;;;;;5.37;3.00;;;13.70;99.90;;;;;;4354823;28;657326;-67
2021/09/21 11:27:58;;;;;;;4.60;2.77;;;13.80;99.90;;;;;;4388114;28;657439;-68
2021/09/21 11:30:47;;;;;;;6.63;2.90;;;13.90;99.90;;;;;;4413925;28;657033;-68
2021/09/21 11:33:36;;;;;;;4.30;2.60;;;14.50;99.90;;;;;;4387109;28;656808;-67
2021/09/21 11:36:23;;;;;;;6.30;2.80;;;15.20;99.90;;;;;;4379978;28;656667;-67
2021/09/21 11:39:11;;;;;;;4.67;2.90;;;15.90;99.90;;;;;;4410401;28;657642;-68
2021/09/21 11:41:58;;;;;;;4.07;2.90;;;16.20;99.90;;;;;;4395737;28;656562;-68
2021/09/21 11:44:46;;;;;;;4.40;2.80;;;16.20;99.90;;;;;;4412682;28;656466;-68
2021/09/21 11:47:39;;;;;;;6.90;3.10;;;15.90;99.90;;;;;;4395949;28;656531;-68
2021/09/21 11:50:29;;;;;;;7.80;2.90;;;15.50;99.90;;;;;;4386224;28;656512;-67
2021/09/21 11:53:17;;;;;;;4.27;2.50;;;15.30;99.90;;;;;;4384839;28;656978;-68
2021/09/21 11:56:05;;;;;;;5.50;2.77;;;15.60;99.90;;;;;;4392210;28;656878;-67
2021/09/21 11:58:58;;;;;;;5.03;2.70;;;16.60;99.90;;;;;;4398749;28;657443;-68
2021/09/21 12:01:50;;;;;;;8.53;2.63;;;17.60;99.90;;;;;;4386818;28;657690;-68
2021/09/21 12:04:45;;;;;;;4.33;2.33;;;17.90;99.90;;;;;;4362183;28;656588;-68
2021/09/21 12:07:33;;;;;;;4.53;2.53;;;16.90;99.90;;;;;;4373526;28;656583;-68
2021/09/21 12:10:21;;;;;;;6.63;2.40;;;16.30;99.90;;;;;;4409064;28;658169;-68
2021/09/21 12:13:10;;;;;;;3.70;2.40;;;15.90;99.90;;;;;;4403856;28;656261;-68
2021/09/21 12:16:00;;;;;;;4.63;2.23;;;16.30;99.90;;;;;;4413135;28;659268;-69
2021/09/21 12:18:48;;;;;;;6.70;2.37;;;17.00;99.90;;;;;;4414725;28;656671;-68
2021/09/21 12:21:38;;;;;;;4.27;2.70;;;17.80;99.90;;;;;;4427202;28;657288;-68
2021/09/21 12:24:31;;;;;;;5.67;2.47;;;18.20;99.90;;;;;;4398789;28;656888;-68
2021/09/21 12:27:19;;;;;;;3.73;2.07;;;17.30;99.90;;;;;;4377743;28;656901;-68
2021/09/21 12:30:08;;;;;;;5.87;2.30;;;16.50;99.90;;;;;;4424940;28;657603;-68
2021/09/21 12:33:00;;;;;;;3.13;2.10;;;16.60;99.90;;;;;;4376260;28;656924;-68
2021/09/21 12:35:49;;;;;;;3.93;2.10;;;17.20;99.90;;;;;;4385852;28;656463;-69
2021/09/21 12:38:38;;;;;;;2.60;1.80;;;17.10;99.90;;;;;;4398407;28;656978;-68
2021/09/21 12:41:26;;;;;;;2.90;1.90;;;17.10;99.90;;;;;;4375801;28;657001;-68
2021/09/21 12:44:15;;;;;;;2.00;1.50;;;16.80;99.90;;;;;;4379941;28;656310;-68
2021/09/21 12:47:03;;;;;;;2.23;1.80;;;16.60;99.90;;;;;;4397128;28;657003;-68
2021/09/21 12:49:51;;;;;;;3.93;1.90;;;16.40;99.90;;;;;;4401972;28;657071;-68
2021/09/21 12:52:38;;;;;;;4.03;1.90;;;16.30;99.90;;;;;;4379063;28;656730;-68
2021/09/21 12:55:29;;;;;;;5.73;2.00;;;16.40;99.90;;;;;;4397827;28;657990;-67
2021/09/21 12:58:17;;;;;;;2.80;1.80;;;16.00;99.90;;;;;;4389823;28;657119;-67
2021/09/21 13:01:05;;;;;;;2.90;2.10;;;15.80;99.90;;;;;;4395381;28;657533;-68
2021/09/21 13:03:53;;;;;;;5.87;2.27;;;15.90;99.90;;;;;;4400028;28;656563;-69
2021/09/21 13:06:42;;;;;;;4.13;2.13;;;16.10;99.90;;;;;;4418408;28;657554;-68
2021/09/21 13:09:30;;;;;;;3.57;2.07;;;16.40;99.90;;;;;;4395627;28;656882;-68
2021/09/21 13:12:23;;;;;;;3.83;2.17;;;16.30;99.90;;;;;;4414979;28;656861;-68
2021/09/21 13:15:11;;;;;;;3.80;2.40;;;16.20;99.90;;;;;;4408764;28;657775;-68
2021/09/21 13:17:59;;;;;;;3.93;2.40;;;15.90;99.90;;;;;;4411545;28;656857;-68
2021/09/21 13:20:47;;;;;;;6.47;2.27;;;15.80;99.90;;;;;;4431437;28;656638;-68
2021/09/21 13:23:34;;;;;;;4.30;2.50;;;15.50;99.90;;;;;;4407015;28;656571;-68
2021/09/21 13:26:22;;;;;;;5.20;2.90;;;15.40;99.90;;;;;;4414163;28;657141;-68
2021/09/21 13:29:12;;;;;;;8.57;3.30;;;15.10;99.90;;;;;;4391225;28;656956;-67
2021/09/21 13:31:59;;;;;;;6.20;3.17;;;14.70;99.90;;;;;;4395929;28;657590;-68
2021/09/21 13:34:47;;;;;;;7.23;3.33;;;14.30;99.90;;;;;;4408860;28;656379;-67
2021/09/21 13:37:34;;;;;;;6.70;3.07;;;14.20;99.90;;;;;;4403406;28;658124;-68
2021/09/21 13:40:22;;;;;;;5.97;3.63;;;14.00;99.90;;;;;;4431272;28;656469;-68
2021/09/21 13:43:10;;;;;;;7.10;4.40;;;13.60;99.90;;;;;;4409515;28;657521;-67
2021/09/21 13:45:59;;;;;;;7.37;4.43;;;13.30;99.90;;;;;;4431714;28;657039;-67
2021/09/21 13:48:46;;;;;;;8.73;4.60;;;13.10;99.90;;;;;;4406273;28;657105;-68
2021/09/21 13:51:34;;;;;;;8.53;4.57;;;12.90;99.90;;;;;;4412123;28;656736;-67
2021/09/21 13:54:21;;;;;;;9.07;5.13;;;12.80;99.90;;;;;;4431468;28;656633;-67
2021/09/21 13:57:09;;;;;;;10.53;5.30;;;12.60;99.90;;;;;;4404598;28;656560;-67
2021/09/21 13:59:57;;;;;;;7.90;4.90;;;12.60;99.90;;;;;;4424477;28;658233;-68
2021/09/21 14:02:47;;;;;;;9.30;4.90;;;12.60;99.90;;;;;;4412731;28;656823;-68
2021/09/21 14:05:34;;;;;;;8.53;4.40;;;12.50;99.90;;;;;;4412922;28;656800;-67
2021/09/21 14:08:22;;;;;;;8.63;4.60;;;12.50;99.90;;;;;;4431500;28;656771;-67
2021/09/21 14:11:09;;;;;;;10.57;5.47;;;12.40;99.90;;;;;;4408950;28;657552;-67
2021/09/21 14:13:57;;;;;;;11.53;5.90;;;12.30;99.90;;;;;;4431329;28;658057;-67
2021/09/21 14:16:44;;;;;;;8.60;5.60;;;12.20;1.00;;;;;;4406913;28;659475;-67
2021/09/21 14:19:34;;;;;;;12.23;5.87;;;12.10;1.00;;;;;;4429970;28;655932;-67
2021/09/21 14:22:21;;;;;;;13.40;7.00;;;12.00;1.00;;;;;;4410448;28;657117;-67
2021/09/21 14:25:09;;;;;;;12.17;6.30;;;11.90;1.00;;;;;;4377510;28;656548;-67